sensor_id;sensor_type;location;lat;lon;timestamp;P1;durP1;ratioP1;P2;durP2;ratioP2
48935;SDS011;34745;52.276;10.528;2022-09-13T00:00:52;3.00;;;2.70;;
48935;SDS011;34745;52.276;10.528;2022-09-13T00:03:19;5.00;;;2.73;;
48935;SDS011;34745;52.276;10.528;2022-09-13T00:05:47;4.53;;;2.63;;
48935;SDS011;34745;52.276;10.528;2022-09-13T00:08:16;5.00;;;2.67;;
48935;SDS011;34745;52.276;10.528;2022-09-13T00:10:44;3.97;;;2.40;;
48935;SDS011;34745;52.276;10.528;2022-09-13T00:13:11;3.93;;;2.70;;
48935;SDS011;34745;52.276;10.528;2022-09-13T00:15:41;6.83;;;2.77;;
48935;SDS011;34745;52.276;10.528;2022-09-13T00:18:09;3.23;;;2.60;;
48935;SDS011;34745;52.276;10.528;2022-09-13T00:20:36;2.97;;;2.60;;
48935;SDS011;34745;52.276;10.528;2022-09-13T00:23:03;4.97;;;2.90;;
48935;SDS011;34745;52.276;10.528;2022-09-13T00:25:32;5.67;;;2.67;;
48935;SDS011;34745;52.276;10.528;2022-09-13T00:27:59;2.80;;;2.60;;
48935;SDS011;34745;52.276;10.528;2022-09-13T00:30:25;4.50;;;2.70;;
48935;SDS011;34745;52.276;10.528;2022-09-13T00:32:52;3.67;;;2.50;;
48935;SDS011;34745;52.276;10.528;2022-09-13T00:35:20;4.40;;;3.10;;
48935;SDS011;34745;52.276;10.528;2022-09-13T00:37:46;3.23;;;2.73;;
48935;SDS011;34745;52.276;10.528;2022-09-13T00:40:13;3.83;;;3.13;;
48935;SDS011;34745;52.276;10.528;2022-09-13T00:42:42;4.27;;;3.17;;
48935;SDS011;34745;52.276;10.528;2022-09-13T00:45:14;3.50;;;2.93;;
48935;SDS011;34745;52.276;10.528;2022-09-13T00:47:43;3.77;;;2.50;;
48935;SDS011;34745;52.276;10.528;2022-09-13T00:50:15;3.40;;;3.10;;
48935;SDS011;34745;52.276;10.528;2022-09-13T00:52:47;3.57;;;2.57;;
48935;SDS011;34745;52.276;10.528;2022-09-13T00:55:20;4.07;;;2.73;;
48935;SDS011;34745;52.276;10.528;2022-09-13T00:57:52;3.03;;;2.83;;
48935;SDS011;34745;52.276;10.528;2022-09-13T01:00:20;3.00;;;2.70;;
48935;SDS011;34745;52.276;10.528;2022-09-13T01:02:48;4.60;;;2.80;;
48935;SDS011;34745;52.276;10.528;2022-09-13T01:05:22;3.33;;;3.00;;
48935;SDS011;34745;52.276;10.528;2022-09-13T01:07:53;3.17;;;2.80;;
48935;SDS011;34745;52.276;10.528;2022-09-13T01:10:21;3.13;;;2.80;;
48935;SDS011;34745;52.276;10.528;2022-09-13T01:12:49;5.57;;;3.27;;
48935;SDS011;34745;52.276;10.528;2022-09-13T01:15:24;2.97;;;2.77;;
48935;SDS011;34745;52.276;10.528;2022-09-13T01:17:51;5.93;;;3.13;;
48935;SDS011;34745;52.276;10.528;2022-09-13T01:20:20;5.17;;;3.10;;
48935;SDS011;34745;52.276;10.528;2022-09-13T01:23:04;3.63;;;3.00;;
48935;SDS011;34745;52.276;10.528;2022-09-13T01:26:08;3.77;;;3.10;;
48935;SDS011;34745;52.276;10.528;2022-09-13T01:29:05;4.70;;;3.20;;
48935;SDS011;34745;52.276;10.528;2022-09-13T01:31:47;3.50;;;3.20;;
48935;SDS011;34745;52.276;10.528;2022-09-13T01:34:23;5.70;;;3.03;;
48935;SDS011;34745;52.276;10.528;2022-09-13T01:37:09;4.93;;;2.83;;
48935;SDS011;34745;52.276;10.528;2022-09-13T01:39:59;6.97;;;3.27;;
48935;SDS011;34745;52.276;10.528;2022-09-13T01:42:35;3.73;;;3.40;;
48935;SDS011;34745;52.276;10.528;2022-09-13T01:45:17;6.03;;;3.27;;
48935;SDS011;34745;52.276;10.528;2022-09-13T01:47:51;4.40;;;3.07;;
48935;SDS011;34745;52.276;10.528;2022-09-13T01:50:23;4.20;;;3.10;;
48935;SDS011;34745;52.276;10.528;2022-09-13T01:53:00;3.47;;;2.97;;
48935;SDS011;34745;52.276;10.528;2022-09-13T01:55:33;4.13;;;3.27;;
48935;SDS011;34745;52.276;10.528;2022-09-13T01:58:08;4.20;;;3.23;;
48935;SDS011;34745;52.276;10.528;2022-09-13T02:00:43;4.03;;;3.13;;
48935;SDS011;34745;52.276;10.528;2022-09-13T02:03:15;4.97;;;3.40;;
48935;SDS011;34745;52.276;10.528;2022-09-13T02:05:46;4.83;;;3.10;;
48935;SDS011;34745;52.276;10.528;2022-09-13T02:08:18;3.53;;;3.27;;
48935;SDS011;34745;52.276;10.528;2022-09-13T02:10:51;3.40;;;3.10;;
48935;SDS011;34745;52.276;10.528;2022-09-13T02:13:24;3.90;;;3.50;;
48935;SDS011;34745;52.276;10.528;2022-09-13T02:15:54;4.63;;;3.50;;
48935;SDS011;34745;52.276;10.528;2022-09-13T02:18:28;3.70;;;3.40;;
48935;SDS011;34745;52.276;10.528;2022-09-13T02:21:01;4.97;;;4.10;;
48935;SDS011;34745;52.276;10.528;2022-09-13T02:23:35;7.50;;;3.83;;
48935;SDS011;34745;52.276;10.528;2022-09-13T02:26:07;4.40;;;4.00;;
48935;SDS011;34745;52.276;10.528;2022-09-13T02:28:38;4.93;;;4.00;;
48935;SDS011;34745;52.276;10.528;2022-09-13T02:31:10;4.50;;;3.67;;
48935;SDS011;34745;52.276;10.528;2022-09-13T02:33:41;4.77;;;3.33;;
48935;SDS011;34745;52.276;10.528;2022-09-13T02:36:14;5.73;;;3.70;;
48935;SDS011;34745;52.276;10.528;2022-09-13T02:38:45;4.83;;;3.40;;
48935;SDS011;34745;52.276;10.528;2022-09-13T02:41:18;4.97;;;3.60;;
48935;SDS011;34745;52.276;10.528;2022-09-13T02:43:54;4.23;;;3.83;;
48935;SDS011;34745;52.276;10.528;2022-09-13T02:46:29;5.10;;;3.80;;
48935;SDS011;34745;52.276;10.528;2022-09-13T02:49:12;4.87;;;3.50;;
48935;SDS011;34745;52.276;10.528;2022-09-13T02:51:43;4.40;;;3.97;;
48935;SDS011;34745;52.276;10.528;2022-09-13T02:54:18;5.00;;;3.90;;
48935;SDS011;34745;52.276;10.528;2022-09-13T02:56:53;5.23;;;4.10;;
48935;SDS011;34745;52.276;10.528;2022-09-13T02:59:24;5.10;;;4.03;;
48935;SDS011;34745;52.276;10.528;2022-09-13T03:01:53;5.67;;;3.97;;
48935;SDS011;34745;52.276;10.528;2022-09-13T03:04:27;4.90;;;3.63;;
48935;SDS011;34745;52.276;10.528;2022-09-13T03:06:54;7.00;;;3.70;;
48935;SDS011;34745;52.276;10.528;2022-09-13T03:09:21;6.80;;;4.57;;
48935;SDS011;34745;52.276;10.528;2022-09-13T03:11:56;7.53;;;3.93;;
48935;SDS011;34745;52.276;10.528;2022-09-13T03:14:42;4.60;;;4.20;;
48935;SDS011;34745;52.276;10.528;2022-09-13T03:17:19;5.10;;;3.90;;
48935;SDS011;34745;52.276;10.528;2022-09-13T03:20:07;4.20;;;3.70;;
48935;SDS011;34745;52.276;10.528;2022-09-13T03:22:45;5.33;;;4.07;;
48935;SDS011;34745;52.276;10.528;2022-09-13T03:25:30;6.13;;;4.17;;
48935;SDS011;34745;52.276;10.528;2022-09-13T03:28:11;7.27;;;4.80;;
48935;SDS011;34745;52.276;10.528;2022-09-13T03:30:47;6.00;;;4.13;;
48935;SDS011;34745;52.276;10.528;2022-09-13T03:33:23;8.10;;;4.10;;
48935;SDS011;34745;52.276;10.528;2022-09-13T03:36:00;5.77;;;4.63;;
48935;SDS011;34745;52.276;10.528;2022-09-13T03:38:36;10.03;;;4.90;;
48935;SDS011;34745;52.276;10.528;2022-09-13T03:41:09;5.77;;;5.17;;
48935;SDS011;34745;52.276;10.528;2022-09-13T03:43:40;8.30;;;5.90;;
48935;SDS011;34745;52.276;10.528;2022-09-13T03:46:13;6.50;;;5.60;;
48935;SDS011;34745;52.276;10.528;2022-09-13T03:48:44;7.83;;;6.10;;
48935;SDS011;34745;52.276;10.528;2022-09-13T03:51:13;8.90;;;6.23;;
48935;SDS011;34745;52.276;10.528;2022-09-13T03:53:41;11.50;;;6.93;;
48935;SDS011;34745;52.276;10.528;2022-09-13T03:56:18;12.50;;;6.93;;
48935;SDS011;34745;52.276;10.528;2022-09-13T03:58:46;13.20;;;6.37;;
48935;SDS011;34745;52.276;10.528;2022-09-13T04:01:14;7.67;;;6.30;;
48935;SDS011;34745;52.276;10.528;2022-09-13T04:03:44;12.10;;;6.53;;
48935;SDS011;34745;52.276;10.528;2022-09-13T04:06:11;14.40;;;7.13;;
48935;SDS011;34745;52.276;10.528;2022-09-13T04:08:39;10.97;;;6.93;;
48935;SDS011;34745;52.276;10.528;2022-09-13T04:11:07;9.17;;;6.77;;
48935;SDS011;34745;52.276;10.528;2022-09-13T04:13:34;11.23;;;7.37;;
48935;SDS011;34745;52.276;10.528;2022-09-13T04:16:02;9.60;;;7.23;;
48935;SDS011;34745;52.276;10.528;2022-09-13T04:18:30;9.20;;;6.33;;
48935;SDS011;34745;52.276;10.528;2022-09-13T04:20:58;7.50;;;6.77;;
48935;SDS011;34745;52.276;10.528;2022-09-13T04:23:27;9.00;;;7.07;;
48935;SDS011;34745;52.276;10.528;2022-09-13T04:25:59;8.10;;;7.13;;
48935;SDS011;34745;52.276;10.528;2022-09-13T04:28:27;9.93;;;7.30;;
48935;SDS011;34745;52.276;10.528;2022-09-13T04:30:54;8.10;;;6.90;;
48935;SDS011;34745;52.276;10.528;2022-09-13T04:33:20;12.73;;;7.50;;
48935;SDS011;34745;52.276;10.528;2022-09-13T04:35:52;9.77;;;7.53;;
48935;SDS011;34745;52.276;10.528;2022-09-13T04:38:20;8.33;;;6.67;;
48935;SDS011;34745;52.276;10.528;2022-09-13T04:40:52;10.07;;;7.10;;
48935;SDS011;34745;52.276;10.528;2022-09-13T04:43:20;8.13;;;6.60;;
48935;SDS011;34745;52.276;10.528;2022-09-13T04:45:47;10.73;;;7.10;;
48935;SDS011;34745;52.276;10.528;2022-09-13T04:48:14;7.43;;;6.70;;
48935;SDS011;34745;52.276;10.528;2022-09-13T04:50:42;7.87;;;6.83;;
48935;SDS011;34745;52.276;10.528;2022-09-13T04:53:10;8.93;;;7.30;;
48935;SDS011;34745;52.276;10.528;2022-09-13T04:55:37;10.33;;;8.77;;
48935;SDS011;34745;52.276;10.528;2022-09-13T04:58:05;11.37;;;7.77;;
48935;SDS011;34745;52.276;10.528;2022-09-13T05:00:32;11.13;;;7.23;;
48935;SDS011;34745;52.276;10.528;2022-09-13T05:02:59;8.70;;;7.77;;
48935;SDS011;34745;52.276;10.528;2022-09-13T05:05:27;13.77;;;7.43;;
48935;SDS011;34745;52.276;10.528;2022-09-13T05:07:54;11.50;;;7.87;;
48935;SDS011;34745;52.276;10.528;2022-09-13T05:10:21;9.43;;;7.90;;
48935;SDS011;34745;52.276;10.528;2022-09-13T05:12:48;9.80;;;8.50;;
48935;SDS011;34745;52.276;10.528;2022-09-13T05:15:17;10.93;;;8.10;;
48935;SDS011;34745;52.276;10.528;2022-09-13T05:17:43;12.17;;;8.23;;
48935;SDS011;34745;52.276;10.528;2022-09-13T05:20:10;11.83;;;7.90;;
48935;SDS011;34745;52.276;10.528;2022-09-13T05:22:37;10.67;;;8.30;;
48935;SDS011;34745;52.276;10.528;2022-09-13T05:25:05;12.17;;;8.93;;
48935;SDS011;34745;52.276;10.528;2022-09-13T05:27:33;11.00;;;8.53;;
48935;SDS011;34745;52.276;10.528;2022-09-13T05:29:59;13.07;;;8.77;;
48935;SDS011;34745;52.276;10.528;2022-09-13T05:32:28;13.83;;;8.80;;
48935;SDS011;34745;52.276;10.528;2022-09-13T05:34:56;12.13;;;8.47;;
48935;SDS011;34745;52.276;10.528;2022-09-13T05:37:23;15.03;;;9.77;;
48935;SDS011;34745;52.276;10.528;2022-09-13T05:39:50;11.27;;;7.87;;
48935;SDS011;34745;52.276;10.528;2022-09-13T05:42:36;12.07;;;8.30;;
48935;SDS011;34745;52.276;10.528;2022-09-13T05:45:03;11.90;;;8.93;;
48935;SDS011;34745;52.276;10.528;2022-09-13T05:47:33;9.80;;;8.77;;
48935;SDS011;34745;52.276;10.528;2022-09-13T05:50:00;10.53;;;8.80;;
48935;SDS011;34745;52.276;10.528;2022-09-13T05:52:36;10.63;;;8.57;;
48935;SDS011;34745;52.276;10.528;2022-09-13T05:55:03;12.57;;;8.87;;
48935;SDS011;34745;52.276;10.528;2022-09-13T05:57:30;11.07;;;8.83;;
48935;SDS011;34745;52.276;10.528;2022-09-13T05:59:57;10.27;;;8.47;;
48935;SDS011;34745;52.276;10.528;2022-09-13T06:02:24;9.97;;;8.43;;
48935;SDS011;34745;52.276;10.528;2022-09-13T06:04:52;8.87;;;7.90;;
48935;SDS011;34745;52.276;10.528;2022-09-13T06:07:19;12.50;;;8.53;;
48935;SDS011;34745;52.276;10.528;2022-09-13T06:09:46;10.47;;;8.40;;
48935;SDS011;34745;52.276;10.528;2022-09-13T06:12:13;10.83;;;8.33;;
48935;SDS011;34745;52.276;10.528;2022-09-13T06:14:40;9.50;;;8.37;;
48935;SDS011;34745;52.276;10.528;2022-09-13T06:17:07;13.37;;;8.73;;
48935;SDS011;34745;52.276;10.528;2022-09-13T06:19:34;13.07;;;8.73;;
48935;SDS011;34745;52.276;10.528;2022-09-13T06:22:02;10.93;;;8.37;;
48935;SDS011;34745;52.276;10.528;2022-09-13T06:24:29;11.00;;;8.97;;
48935;SDS011;34745;52.276;10.528;2022-09-13T06:26:56;13.40;;;8.90;;
48935;SDS011;34745;52.276;10.528;2022-09-13T06:29:23;14.57;;;8.10;;
48935;SDS011;34745;52.276;10.528;2022-09-13T06:31:49;10.63;;;8.53;;
48935;SDS011;34745;52.276;10.528;2022-09-13T06:34:16;12.70;;;8.60;;
48935;SDS011;34745;52.276;10.528;2022-09-13T06:36:43;9.30;;;8.30;;
48935;SDS011;34745;52.276;10.528;2022-09-13T06:39:11;10.83;;;8.20;;
48935;SDS011;34745;52.276;10.528;2022-09-13T06:41:39;11.07;;;8.53;;
48935;SDS011;34745;52.276;10.528;2022-09-13T06:44:05;10.37;;;8.37;;
48935;SDS011;34745;52.276;10.528;2022-09-13T06:46:33;10.37;;;8.23;;
48935;SDS011;34745;52.276;10.528;2022-09-13T06:49:01;10.13;;;8.50;;
48935;SDS011;34745;52.276;10.528;2022-09-13T06:51:29;11.60;;;8.47;;
48935;SDS011;34745;52.276;10.528;2022-09-13T06:53:57;13.97;;;8.67;;
48935;SDS011;34745;52.276;10.528;2022-09-13T06:56:26;10.27;;;8.80;;
48935;SDS011;34745;52.276;10.528;2022-09-13T06:58:56;8.80;;;7.90;;
48935;SDS011;34745;52.276;10.528;2022-09-13T07:01:25;9.73;;;8.67;;
48935;SDS011;34745;52.276;10.528;2022-09-13T07:03:55;9.50;;;8.50;;
48935;SDS011;34745;52.276;10.528;2022-09-13T07:06:26;12.43;;;8.23;;
48935;SDS011;34745;52.276;10.528;2022-09-13T07:08:54;10.83;;;8.37;;
48935;SDS011;34745;52.276;10.528;2022-09-13T07:11:22;9.80;;;8.80;;
48935;SDS011;34745;52.276;10.528;2022-09-13T07:13:52;9.90;;;8.40;;
48935;SDS011;34745;52.276;10.528;2022-09-13T07:16:20;12.73;;;8.23;;
48935;SDS011;34745;52.276;10.528;2022-09-13T07:18:49;10.93;;;8.00;;
48935;SDS011;34745;52.276;10.528;2022-09-13T07:21:17;14.23;;;9.33;;
48935;SDS011;34745;52.276;10.528;2022-09-13T07:23:44;10.10;;;8.10;;
48935;SDS011;34745;52.276;10.528;2022-09-13T07:26:11;10.23;;;8.07;;
48935;SDS011;34745;52.276;10.528;2022-09-13T07:28:40;9.40;;;8.30;;
48935;SDS011;34745;52.276;10.528;2022-09-13T07:31:11;9.83;;;8.43;;
48935;SDS011;34745;52.276;10.528;2022-09-13T07:33:40;13.77;;;8.47;;
48935;SDS011;34745;52.276;10.528;2022-09-13T07:36:08;9.80;;;7.80;;
48935;SDS011;34745;52.276;10.528;2022-09-13T07:38:38;8.50;;;7.67;;
48935;SDS011;34745;52.276;10.528;2022-09-13T07:41:11;7.93;;;6.73;;
48935;SDS011;34745;52.276;10.528;2022-09-13T07:43:39;11.13;;;7.10;;
48935;SDS011;34745;52.276;10.528;2022-09-13T07:46:07;8.17;;;6.90;;
48935;SDS011;34745;52.276;10.528;2022-09-13T07:48:37;8.13;;;6.50;;
48935;SDS011;34745;52.276;10.528;2022-09-13T07:51:05;7.63;;;6.10;;
48935;SDS011;34745;52.276;10.528;2022-09-13T07:53:34;7.20;;;6.50;;
48935;SDS011;34745;52.276;10.528;2022-09-13T07:56:02;9.17;;;7.03;;
48935;SDS011;34745;52.276;10.528;2022-09-13T07:58:30;12.60;;;7.33;;
48935;SDS011;34745;52.276;10.528;2022-09-13T08:00:59;9.37;;;7.40;;
48935;SDS011;34745;52.276;10.528;2022-09-13T08:03:31;9.03;;;6.37;;
48935;SDS011;34745;52.276;10.528;2022-09-13T08:06:01;8.67;;;6.50;;
48935;SDS011;34745;52.276;10.528;2022-09-13T08:08:29;10.40;;;6.37;;
48935;SDS011;34745;52.276;10.528;2022-09-13T08:10:57;7.57;;;6.53;;
48935;SDS011;34745;52.276;10.528;2022-09-13T08:13:25;9.13;;;6.50;;
48935;SDS011;34745;52.276;10.528;2022-09-13T08:15:52;8.20;;;6.32;;
48935;SDS011;34745;52.276;10.528;2022-09-13T08:18:20;11.90;;;7.43;;
48935;SDS011;34745;52.276;10.528;2022-09-13T08:20:46;9.87;;;6.87;;
48935;SDS011;34745;52.276;10.528;2022-09-13T08:23:15;7.45;;;6.70;;
48935;SDS011;34745;52.276;10.528;2022-09-13T08:25:41;6.90;;;6.20;;
48935;SDS011;34745;52.276;10.528;2022-09-13T08:28:09;7.40;;;6.68;;
48935;SDS011;34745;52.276;10.528;2022-09-13T08:30:40;9.88;;;6.40;;
48935;SDS011;34745;52.276;10.528;2022-09-13T08:33:08;8.40;;;6.28;;
48935;SDS011;34745;52.276;10.528;2022-09-13T08:35:37;7.97;;;6.53;;
48935;SDS011;34745;52.276;10.528;2022-09-13T08:38:04;7.53;;;6.30;;
48935;SDS011;34745;52.276;10.528;2022-09-13T08:40:37;9.10;;;6.45;;
48935;SDS011;34745;52.276;10.528;2022-09-13T08:43:09;6.85;;;5.88;;
48935;SDS011;34745;52.276;10.528;2022-09-13T08:45:48;9.90;;;6.45;;
48935;SDS011;34745;52.276;10.528;2022-09-13T08:48:17;7.97;;;6.30;;
48935;SDS011;34745;52.276;10.528;2022-09-13T08:50:47;9.80;;;5.70;;
48935;SDS011;34745;52.276;10.528;2022-09-13T08:53:17;7.55;;;5.90;;
48935;SDS011;34745;52.276;10.528;2022-09-13T08:55:53;8.43;;;6.65;;
48935;SDS011;34745;52.276;10.528;2022-09-13T08:58:39;7.10;;;6.38;;
48935;SDS011;34745;52.276;10.528;2022-09-13T09:01:19;8.55;;;6.18;;
48935;SDS011;34745;52.276;10.528;2022-09-13T09:03:52;7.15;;;5.85;;
48935;SDS011;34745;52.276;10.528;2022-09-13T09:06:29;6.70;;;5.97;;
48935;SDS011;34745;52.276;10.528;2022-09-13T09:09:01;8.45;;;6.00;;
48935;SDS011;34745;52.276;10.528;2022-09-13T09:11:33;8.45;;;6.10;;
48935;SDS011;34745;52.276;10.528;2022-09-13T09:14:06;8.25;;;6.68;;
48935;SDS011;34745;52.276;10.528;2022-09-13T09:16:42;8.32;;;6.45;;
48935;SDS011;34745;52.276;10.528;2022-09-13T09:19:15;13.93;;;7.18;;
48935;SDS011;34745;52.276;10.528;2022-09-13T09:21:45;13.10;;;7.28;;
48935;SDS011;34745;52.276;10.528;2022-09-13T09:24:16;8.95;;;7.28;;
48935;SDS011;34745;52.276;10.528;2022-09-13T09:26:47;10.32;;;7.35;;
48935;SDS011;34745;52.276;10.528;2022-09-13T09:29:19;10.30;;;6.70;;
48935;SDS011;34745;52.276;10.528;2022-09-13T09:31:55;9.25;;;6.20;;
48935;SDS011;34745;52.276;10.528;2022-09-13T09:34:33;10.10;;;7.07;;
48935;SDS011;34745;52.276;10.528;2022-09-13T09:37:14;9.85;;;6.95;;
48935;SDS011;34745;52.276;10.528;2022-09-13T09:39:46;9.18;;;7.53;;
48935;SDS011;34745;52.276;10.528;2022-09-13T09:42:16;8.93;;;7.22;;
48935;SDS011;34745;52.276;10.528;2022-09-13T09:44:47;10.00;;;7.75;;
48935;SDS011;34745;52.276;10.528;2022-09-13T09:47:18;12.30;;;7.60;;
48935;SDS011;34745;52.276;10.528;2022-09-13T09:49:54;11.98;;;7.70;;
48935;SDS011;34745;52.276;10.528;2022-09-13T09:52:36;9.45;;;6.68;;
48935;SDS011;34745;52.276;10.528;2022-09-13T09:55:09;9.45;;;6.97;;
48935;SDS011;34745;52.276;10.528;2022-09-13T09:57:51;8.95;;;7.22;;
48935;SDS011;34745;52.276;10.528;2022-09-13T10:00:20;10.63;;;7.70;;
48935;SDS011;34745;52.276;10.528;2022-09-13T10:02:53;13.18;;;8.38;;
48935;SDS011;34745;52.276;10.528;2022-09-13T10:05:22;12.15;;;8.20;;
48935;SDS011;34745;52.276;10.528;2022-09-13T10:07:56;10.23;;;8.88;;
48935;SDS011;34745;52.276;10.528;2022-09-13T10:10:28;10.98;;;8.23;;
48935;SDS011;34745;52.276;10.528;2022-09-13T10:13:04;13.82;;;8.80;;
48935;SDS011;34745;52.276;10.528;2022-09-13T10:15:33;11.40;;;8.27;;
48935;SDS011;34745;52.276;10.528;2022-09-13T10:18:02;10.10;;;8.60;;
48935;SDS011;34745;52.276;10.528;2022-09-13T10:20:59;16.30;;;8.20;;
48935;SDS011;34745;52.276;10.528;2022-09-13T10:23:28;11.52;;;8.38;;
48935;SDS011;34745;52.276;10.528;2022-09-13T10:26:00;11.45;;;7.90;;
48935;SDS011;34745;52.276;10.528;2022-09-13T10:28:35;12.07;;;7.82;;
48935;SDS011;34745;52.276;10.528;2022-09-13T10:31:10;11.23;;;8.02;;
48935;SDS011;34745;52.276;10.528;2022-09-13T10:33:43;11.65;;;9.48;;
48935;SDS011;34745;52.276;10.528;2022-09-13T10:36:18;11.75;;;9.30;;
48935;SDS011;34745;52.276;10.528;2022-09-13T10:39:12;16.15;;;11.18;;
48935;SDS011;34745;52.276;10.528;2022-09-13T10:41:47;18.60;;;10.82;;
48935;SDS011;34745;52.276;10.528;2022-09-13T10:44:29;18.65;;;11.52;;
48935;SDS011;34745;52.276;10.528;2022-09-13T10:46:58;19.23;;;11.70;;
48935;SDS011;34745;52.276;10.528;2022-09-13T10:49:35;13.98;;;11.52;;
48935;SDS011;34745;52.276;10.528;2022-09-13T10:52:23;13.55;;;10.75;;
48935;SDS011;34745;52.276;10.528;2022-09-13T10:57:55;13.68;;;11.18;;
48935;SDS011;34745;52.276;10.528;2022-09-13T11:00:43;18.92;;;11.07;;
48935;SDS011;34745;52.276;10.528;2022-09-13T11:03:24;16.42;;;11.40;;
48935;SDS011;34745;52.276;10.528;2022-09-13T11:06:04;15.25;;;11.20;;
48935;SDS011;34745;52.276;10.528;2022-09-13T11:08:40;17.60;;;10.85;;
48935;SDS011;34745;52.276;10.528;2022-09-13T11:11:17;14.40;;;10.18;;
48935;SDS011;34745;52.276;10.528;2022-09-13T11:13:55;16.17;;;10.52;;
48935;SDS011;34745;52.276;10.528;2022-09-13T11:16:38;15.00;;;10.38;;
48935;SDS011;34745;52.276;10.528;2022-09-13T11:22:16;13.38;;;10.40;;
48935;SDS011;34745;52.276;10.528;2022-09-13T11:24:57;13.10;;;10.02;;
48935;SDS011;34745;52.276;10.528;2022-09-13T11:27:41;12.85;;;10.00;;
48935;SDS011;34745;52.276;10.528;2022-09-13T11:30:16;14.18;;;10.32;;
48935;SDS011;34745;52.276;10.528;2022-09-13T11:35:48;12.90;;;9.13;;
48935;SDS011;34745;52.276;10.528;2022-09-13T11:38:37;9.63;;;8.35;;
48935;SDS011;34745;52.276;10.528;2022-09-13T11:41:14;9.88;;;8.40;;
48935;SDS011;34745;52.276;10.528;2022-09-13T11:43:53;13.27;;;8.98;;
48935;SDS011;34745;52.276;10.528;2022-09-13T11:46:30;10.43;;;8.30;;
48935;SDS011;34745;52.276;10.528;2022-09-13T11:49:14;15.00;;;9.05;;
48935;SDS011;34745;52.276;10.528;2022-09-13T11:51:54;10.40;;;8.25;;
48935;SDS011;34745;52.276;10.528;2022-09-13T11:54:34;9.52;;;7.80;;
48935;SDS011;34745;52.276;10.528;2022-09-13T11:57:17;11.57;;;7.63;;
48935;SDS011;34745;52.276;10.528;2022-09-13T11:59:50;11.95;;;7.38;;
48935;SDS011;34745;52.276;10.528;2022-09-13T12:02:22;7.47;;;6.68;;
48935;SDS011;34745;52.276;10.528;2022-09-13T12:04:55;13.30;;;7.53;;
48935;SDS011;34745;52.276;10.528;2022-09-13T12:07:47;11.02;;;7.93;;
48935;SDS011;34745;52.276;10.528;2022-09-13T12:10:19;10.00;;;7.68;;
48935;SDS011;34745;52.276;10.528;2022-09-13T12:12:50;10.90;;;7.63;;
48935;SDS011;34745;52.276;10.528;2022-09-13T12:15:20;10.60;;;8.65;;
48935;SDS011;34745;52.276;10.528;2022-09-13T12:17:52;11.27;;;8.75;;
48935;SDS011;34745;52.276;10.528;2022-09-13T12:20:27;11.23;;;8.90;;
48935;SDS011;34745;52.276;10.528;2022-09-13T12:22:57;11.25;;;8.95;;
48935;SDS011;34745;52.276;10.528;2022-09-13T12:25:30;12.75;;;11.13;;
48935;SDS011;34745;52.276;10.528;2022-09-13T12:28:03;23.10;;;13.48;;
48935;SDS011;34745;52.276;10.528;2022-09-13T12:30:39;18.65;;;12.57;;
48935;SDS011;34745;52.276;10.528;2022-09-13T12:33:12;18.50;;;12.93;;
48935;SDS011;34745;52.276;10.528;2022-09-13T12:35:44;18.90;;;13.90;;
48935;SDS011;34745;52.276;10.528;2022-09-13T12:38:28;18.63;;;13.77;;
48935;SDS011;34745;52.276;10.528;2022-09-13T12:41:30;20.92;;;13.27;;
48935;SDS011;34745;52.276;10.528;2022-09-13T12:44:19;18.65;;;13.63;;
48935;SDS011;34745;52.276;10.528;2022-09-13T12:47:19;20.27;;;13.80;;
48935;SDS011;34745;52.276;10.528;2022-09-13T12:50:10;20.20;;;13.57;;
48935;SDS011;34745;52.276;10.528;2022-09-13T12:53:20;15.15;;;11.43;;
48935;SDS011;34745;52.276;10.528;2022-09-13T12:56:16;18.75;;;13.95;;
48935;SDS011;34745;52.276;10.528;2022-09-13T12:58:58;20.92;;;14.13;;
48935;SDS011;34745;52.276;10.528;2022-09-13T13:01:43;22.17;;;14.48;;
48935;SDS011;34745;52.276;10.528;2022-09-13T13:04:14;18.55;;;13.93;;
48935;SDS011;34745;52.276;10.528;2022-09-13T13:06:46;20.60;;;14.93;;
48935;SDS011;34745;52.276;10.528;2022-09-13T13:09:22;23.02;;;15.13;;
48935;SDS011;34745;52.276;10.528;2022-09-13T13:11:55;20.45;;;14.45;;
48935;SDS011;34745;52.276;10.528;2022-09-13T13:14:42;21.08;;;13.38;;
48935;SDS011;34745;52.276;10.528;2022-09-13T13:23:19;21.50;;;13.73;;
48935;SDS011;34745;52.276;10.528;2022-09-13T13:26:00;26.80;;;13.73;;
48935;SDS011;34745;52.276;10.528;2022-09-13T13:28:49;24.33;;;14.75;;
48935;SDS011;34745;52.276;10.528;2022-09-13T13:31:39;19.48;;;14.30;;
48935;SDS011;34745;52.276;10.528;2022-09-13T13:37:04;15.88;;;13.35;;
48935;SDS011;34745;52.276;10.528;2022-09-13T13:39:49;19.23;;;15.57;;
48935;SDS011;34745;52.276;10.528;2022-09-13T13:42:39;18.70;;;13.07;;
48935;SDS011;34745;52.276;10.528;2022-09-13T13:45:14;16.67;;;13.60;;
48935;SDS011;34745;52.276;10.528;2022-09-13T13:53:47;19.92;;;14.05;;
48935;SDS011;34745;52.276;10.528;2022-09-13T13:56:21;18.23;;;13.90;;
48935;SDS011;34745;52.276;10.528;2022-09-13T13:58:57;18.20;;;12.65;;
48935;SDS011;34745;52.276;10.528;2022-09-13T14:01:31;15.93;;;12.15;;
48935;SDS011;34745;52.276;10.528;2022-09-13T14:07:06;19.15;;;13.02;;
48935;SDS011;34745;52.276;10.528;2022-09-13T14:09:46;17.05;;;12.52;;
48935;SDS011;34745;52.276;10.528;2022-09-13T14:12:20;16.20;;;12.43;;
48935;SDS011;34745;52.276;10.528;2022-09-13T14:15:02;14.43;;;12.88;;
48935;SDS011;34745;52.276;10.528;2022-09-13T14:17:53;13.57;;;11.85;;
48935;SDS011;34745;52.276;10.528;2022-09-13T14:20:55;15.10;;;11.30;;
48935;SDS011;34745;52.276;10.528;2022-09-13T14:23:26;14.30;;;11.25;;
48935;SDS011;34745;52.276;10.528;2022-09-13T14:25:54;16.13;;;13.23;;
48935;SDS011;34745;52.276;10.528;2022-09-13T14:28:22;15.23;;;13.10;;
48935;SDS011;34745;52.276;10.528;2022-09-13T14:30:55;15.82;;;12.10;;
48935;SDS011;34745;52.276;10.528;2022-09-13T14:33:24;14.77;;;11.68;;
48935;SDS011;34745;52.276;10.528;2022-09-13T14:36:00;18.63;;;12.90;;
48935;SDS011;34745;52.276;10.528;2022-09-13T14:38:30;20.52;;;12.30;;
48935;SDS011;34745;52.276;10.528;2022-09-13T14:41:01;12.57;;;11.25;;
48935;SDS011;34745;52.276;10.528;2022-09-13T14:43:38;13.52;;;11.25;;
48935;SDS011;34745;52.276;10.528;2022-09-13T14:46:08;10.75;;;9.27;;
48935;SDS011;34745;52.276;10.528;2022-09-13T14:48:38;10.75;;;8.90;;
48935;SDS011;34745;52.276;10.528;2022-09-13T14:51:12;10.40;;;9.30;;
48935;SDS011;34745;52.276;10.528;2022-09-13T14:53:45;12.70;;;8.35;;
48935;SDS011;34745;52.276;10.528;2022-09-13T14:56:17;9.93;;;7.70;;
48935;SDS011;34745;52.276;10.528;2022-09-13T14:58:50;8.18;;;7.38;;
48935;SDS011;34745;52.276;10.528;2022-09-13T15:01:25;8.88;;;6.90;;
48935;SDS011;34745;52.276;10.528;2022-09-13T15:03:54;8.35;;;7.50;;
48935;SDS011;34745;52.276;10.528;2022-09-13T15:06:24;8.27;;;6.80;;
48935;SDS011;34745;52.276;10.528;2022-09-13T15:08:53;13.90;;;7.78;;
48935;SDS011;34745;52.276;10.528;2022-09-13T15:11:27;6.35;;;5.75;;
48935;SDS011;34745;52.276;10.528;2022-09-13T15:14:00;6.88;;;6.18;;
48935;SDS011;34745;52.276;10.528;2022-09-13T15:16:48;5.45;;;4.95;;
48935;SDS011;34745;52.276;10.528;2022-09-13T15:19:26;5.65;;;5.15;;
48935;SDS011;34745;52.276;10.528;2022-09-13T15:22:01;7.65;;;5.25;;
48935;SDS011;34745;52.276;10.528;2022-09-13T15:24:30;5.85;;;4.18;;
48935;SDS011;34745;52.276;10.528;2022-09-13T15:27:02;7.30;;;4.40;;